Berit — ZDHX2 — position and weather

sailwx.info

Track history (hours):
 
Tides and Currents Weather Stations Pressure Air Temp Water Temp Dewpoint Dewpoint Depression Visibility Wind Speed Wind Dir Waves Ship Positions

Berit

Last reported at 2014-Jul-25 04:14 UTC. Time now 2014-Jul-31 07:34 UTC.
Position N 55°39' E 021°10'.

Length 83 m; draft 3 m.

Type: Cargo ship. MMSI: 236386000.

Date/timePositionNaut miles runAvg speedWind from/ knotsBaromVisibWave heightAir tempDewpointWater temp
2014-Jul-25 04:14N 55°39' E 021°10'0 0.0
2014-Jul-23 07:13N 55°39' E 021°10'0 0.0
2014-Jul-23 06:19N 55°39' E 021°10'0 0.0
2014-Jul-23 05:22N 55°39' E 021°10'0 0.0
2014-Jul-23 04:31N 55°39' E 021°10'0 0.3
2014-Jul-23 03:28N 55°39' E 021°09'0 0.0
2014-Jul-23 02:31N 55°39' E 021°09'0 0.0
2014-Jul-23 01:31N 55°39' E 021°09'6 0.3
2014-Jul-22 06:33N 55°44' E 021°02'9 8.6
2014-Jul-22 05:32N 55°46' E 020°47'29 8.8
2014-Jul-22 02:12N 56°15' E 020°42'32 8.7
2014-Jul-21 22:34N 56°46' E 020°40'  
2014-Jul-18 10:23N 56°35' E 017°58'47 9.3
2014-Jul-18 05:16N 56°06' E 016°50'6 9.2
2014-Jul-18 04:33N 56°02' E 016°41'9 8.6
2014-Jul-18 03:33N 55°58' E 016°28'8 8.4
2014-Jul-18 02:33N 55°54' E 016°14'9 8.5
2014-Jul-18 01:33N 55°50' E 016°01'8 8.4
2014-Jul-18 00:34N 55°46' E 015°48'8 8.4
2014-Jul-17 23:33N 55°41' E 015°35'9 8.6
2014-Jul-17 22:34N 55°37' E 015°22'9 8.9
2014-Jul-17 21:33N 55°32' E 015°08'9 9.1
2014-Jul-17 20:34N 55°28' E 014°55'9 9.2
2014-Jul-17 19:33N 55°23' E 014°41'10 9.7
2014-Jul-17 18:33N 55°16' E 014°29'9 9.2
2014-Jul-17 17:33N 55°11' E 014°16'9 9.5
2014-Jul-17 16:33N 55°10' E 013°59'10 9.7
2014-Jul-17 15:33N 55°11' E 013°43'20 9.8
2014-Jul-17 13:33N 55°14' E 013°08'10 9.9
2014-Jul-17 12:34N 55°15' E 012°51'9 8.6
2014-Jul-17 11:34N 55°20' E 012°38'9 9.1
2014-Jul-17 10:33N 55°29' E 012°41'9 8.7
2014-Jul-17 09:33N 55°37' E 012°42'9 8.8
2014-Jul-17 08:34N 55°46' E 012°41'9 9.1
2014-Jul-17 07:33N 55°55' E 012°38'9 9.0
2014-Jul-17 06:33N 56°04' E 012°37'10 9.8
2014-Jul-17 05:33N 56°10' E 012°23'10 9.7
2014-Jul-17 04:33N 56°16' E 012°09'9 8.9
2014-Jul-17 03:33N 56°24' E 012°01'14 9.5
2014-Jul-17 02:05N 56°37' E 011°55'5 9.8
2014-Jul-17 01:33N 56°42' E 011°53'1010.0
2014-Jul-17 00:33N 56°52' E 011°48'1010.2
2014-Jul-16 23:33N 57°01' E 011°41'1410.3
2014-Jul-16 22:09N 57°15' E 011°32'610.3
2014-Jul-16 21:34N 57°21' E 011°28'1010.2
2014-Jul-16 20:33N 57°30' E 011°21'9 9.4
2014-Jul-16 19:34N 57°39' E 011°24'9 9.2
2014-Jul-16 18:33N 57°49' E 011°25'8 7.9
2014-Jul-16 17:33N 57°55' E 011°34'9 8.6
2014-Jul-16 16:33N 58°01' E 011°46'4 1.3
2014-Jul-16 13:21N 58°05' E 011°49'0 0.0
2014-Jul-16 11:33N 58°05' E 011°49'0 0.0
2014-Jul-16 10:30N 58°05' E 011°49'0 0.0
2014-Jul-16 09:33N 58°05' E 011°49'5 4.7
2014-Jul-16 08:33N 58°00' E 011°46'1010.1
2014-Jul-16 07:33N 57°54' E 011°32'9 9.0
2014-Jul-16 06:33N 57°45' E 011°25'9 9.3
2014-Jul-16 05:33N 57°36' E 011°24'9 9.3
2014-Jul-16 04:33N 57°27' E 011°30'10 9.7
2014-Jul-16 03:33N 57°18' E 011°35'10 9.5
2014-Jul-16 02:33N 57°09' E 011°40'10 9.9
2014-Jul-16 01:33N 56°59' E 011°46'10 9.9
2014-Jul-16 00:31N 56°50' E 011°52'8 8.9
2014-Jul-15 23:33N 56°41' E 011°49'  
Track history (hours):
 
Tides and Currents Weather Stations Pressure Air Temp Water Temp Dewpoint Dewpoint Depression Visibility Wind Speed Wind Dir Waves Ship Positions

Berit

Last reported at 2014-Jul-25 04:14 UTC. Time now 2014-Jul-31 07:34 UTC.
Position N 55°39' E 021°10'.

Length 83 m; draft 3 m.

Type: Cargo ship. MMSI: 236386000.

Date/timePositionNaut miles runAvg speedWind from/ knotsBaromVisibWave heightAir tempDewpointWater temp
2014-Jul-25 04:14N 55°39' E 021°10'0 0.0
2014-Jul-23 07:13N 55°39' E 021°10'0 0.0
2014-Jul-23 06:19N 55°39' E 021°10'0 0.0
2014-Jul-23 05:22N 55°39' E 021°10'0 0.0
2014-Jul-23 04:31N 55°39' E 021°10'0 0.3
2014-Jul-23 03:28N 55°39' E 021°09'0 0.0
2014-Jul-23 02:31N 55°39' E 021°09'0 0.0
2014-Jul-23 01:31N 55°39' E 021°09'6 0.3
2014-Jul-22 06:33N 55°44' E 021°02'9 8.6
2014-Jul-22 05:32N 55°46' E 020°47'29 8.8
2014-Jul-22 02:12N 56°15' E 020°42'32 8.7
2014-Jul-21 22:34N 56°46' E 020°40'  
2014-Jul-18 10:23N 56°35' E 017°58'47 9.3
2014-Jul-18 05:16N 56°06' E 016°50'6 9.2
2014-Jul-18 04:33N 56°02' E 016°41'9 8.6
2014-Jul-18 03:33N 55°58' E 016°28'8 8.4
2014-Jul-18 02:33N 55°54' E 016°14'9 8.5
2014-Jul-18 01:33N 55°50' E 016°01'8 8.4
2014-Jul-18 00:34N 55°46' E 015°48'8 8.4
2014-Jul-17 23:33N 55°41' E 015°35'9 8.6
2014-Jul-17 22:34N 55°37' E 015°22'9 8.9
2014-Jul-17 21:33N 55°32' E 015°08'9 9.1
2014-Jul-17 20:34N 55°28' E 014°55'9 9.2
2014-Jul-17 19:33N 55°23' E 014°41'10 9.7
2014-Jul-17 18:33N 55°16' E 014°29'9 9.2
2014-Jul-17 17:33N 55°11' E 014°16'9 9.5
2014-Jul-17 16:33N 55°10' E 013°59'10 9.7
2014-Jul-17 15:33N 55°11' E 013°43'20 9.8
2014-Jul-17 13:33N 55°14' E 013°08'10 9.9
2014-Jul-17 12:34N 55°15' E 012°51'9 8.6
2014-Jul-17 11:34N 55°20' E 012°38'9 9.1
2014-Jul-17 10:33N 55°29' E 012°41'9 8.7
2014-Jul-17 09:33N 55°37' E 012°42'9 8.8
2014-Jul-17 08:34N 55°46' E 012°41'9 9.1
2014-Jul-17 07:33N 55°55' E 012°38'9 9.0
2014-Jul-17 06:33N 56°04' E 012°37'10 9.8
2014-Jul-17 05:33N 56°10' E 012°23'10 9.7
2014-Jul-17 04:33N 56°16' E 012°09'9 8.9
2014-Jul-17 03:33N 56°24' E 012°01'14 9.5
2014-Jul-17 02:05N 56°37' E 011°55'5 9.8
2014-Jul-17 01:33N 56°42' E 011°53'1010.0
2014-Jul-17 00:33N 56°52' E 011°48'1010.2
2014-Jul-16 23:33N 57°01' E 011°41'1410.3
2014-Jul-16 22:09N 57°15' E 011°32'610.3
2014-Jul-16 21:34N 57°21' E 011°28'1010.2
2014-Jul-16 20:33N 57°30' E 011°21'9 9.4
2014-Jul-16 19:34N 57°39' E 011°24'9 9.2
2014-Jul-16 18:33N 57°49' E 011°25'8 7.9
2014-Jul-16 17:33N 57°55' E 011°34'9 8.6
2014-Jul-16 16:33N 58°01' E 011°46'4 1.3
2014-Jul-16 13:21N 58°05' E 011°49'0 0.0
2014-Jul-16 11:33N 58°05' E 011°49'0 0.0
2014-Jul-16 10:30N 58°05' E 011°49'0 0.0
2014-Jul-16 09:33N 58°05' E 011°49'5 4.7
2014-Jul-16 08:33N 58°00' E 011°46'1010.1
2014-Jul-16 07:33N 57°54' E 011°32'9 9.0
2014-Jul-16 06:33N 57°45' E 011°25'9 9.3
2014-Jul-16 05:33N 57°36' E 011°24'9 9.3
2014-Jul-16 04:33N 57°27' E 011°30'10 9.7
2014-Jul-16 03:33N 57°18' E 011°35'10 9.5
2014-Jul-16 02:33N 57°09' E 011°40'10 9.9
2014-Jul-16 01:33N 56°59' E 011°46'10 9.9
2014-Jul-16 00:31N 56°50' E 011°52'8 8.9
2014-Jul-15 23:33N 56°41' E 011°49'  

Dump ship's entire track history